Time;durP1;ratioP1;P1;durP2;ratioP2;P2;SDS_P1;SDS_P2;PMS_P1;PMS_P2;Temp;Humidity;BMP_temperature;BMP_pressure;BME280_temperature;BME280_humidity;BME280_pressure;Samples;Min_cycle;Max_cycle;Signal;HPM_P1;HPM_P2
2021/10/30 17:28:33;;;;;;;4.45;1.10;;;;;;;;;;5094826;27;20426;-59
2021/10/30 17:30:59;;;;;;;3.25;1.10;;;;;;;;;;5105215;27;20062;-58
2021/10/30 17:33:25;;;;;;;2.55;1.10;;;;;;;;;;5093509;28;20032;-59
2021/10/30 17:35:51;;;;;;;3.45;1.27;;;;;;;;;;5094911;28;20032;-61
2021/10/30 17:38:17;;;;;;;2.88;1.10;;;;;;;;;;5110174;28;20591;-59
2021/10/30 17:40:43;;;;;;;5.68;1.15;;;;;;;;;;5094283;28;20031;-58
2021/10/30 17:43:09;;;;;;;2.95;1.00;;;;;;;;;;5110272;28;20431;-60
2021/10/30 17:45:35;;;;;;;3.47;1.10;;;;;;;;;;5109773;28;20378;-57
2021/10/30 17:48:02;;;;;;;2.65;1.05;;;;;;;;;;5112640;28;20046;-59
2021/10/30 17:50:30;;;;;;;2.30;0.73;;;;;;;;;;5114899;28;20066;-59
2021/10/30 17:52:56;;;;;;;2.75;0.93;;;;;;;;;;5110573;28;20107;-58
2021/10/30 17:55:23;;;;;;;6.60;1.30;;;;;;;;;;5108934;28;20038;-57
2021/10/30 17:57:49;;;;;;;3.78;1.10;;;;;;;;;;5112280;28;20107;-58
2021/10/30 18:00:15;;;;;;;3.80;1.30;;;;;;;;;;5108778;28;20310;-59
2021/10/30 18:02:42;;;;;;;3.38;1.23;;;;;;;;;;5088032;28;20040;-59
2021/10/30 18:05:10;;;;;;;5.78;1.10;;;;;;;;;;5109258;28;20090;-59
2021/10/30 18:07:37;;;;;;;1.88;0.80;;;;;;;;;;5098231;28;20067;-59
2021/10/30 18:10:03;;;;;;;4.88;1.00;;;;;;;;;;5089137;28;20051;-59
2021/10/30 18:12:30;;;;;;;3.08;0.90;;;;;;;;;;5086871;28;20043;-60
2021/10/30 18:14:55;;;;;;;3.25;0.90;;;;;;;;;;5086440;28;20044;-57
2021/10/30 18:17:21;;;;;;;4.95;1.45;;;;;;;;;;5065591;28;20039;-59
2021/10/30 18:19:47;;;;;;;3.63;1.30;;;;;;;;;;5088793;28;20111;-60
2021/10/30 18:22:13;;;;;;;3.70;1.30;;;;;;;;;;5088651;28;20040;-58
2021/10/30 18:24:39;;;;;;;7.30;1.10;;;;;;;;;;5087024;28;20046;-58
2021/10/30 18:27:05;;;;;;;2.97;1.10;;;;;;;;;;5089700;28;20384;-60
2021/10/30 18:29:31;;;;;;;3.60;1.30;;;;;;;;;;5089135;28;20113;-61
2021/10/30 18:31:57;;;;;;;3.25;1.20;;;;;;;;;;5088755;28;20040;-57
2021/10/30 18:34:23;;;;;;;2.28;0.88;;;;;;;;;;5085603;28;20045;-59
2021/10/30 18:36:49;;;;;;;3.75;1.00;;;;;;;;;;5084292;28;20464;-58
2021/10/30 18:39:16;;;;;;;2.40;0.90;;;;;;;;;;5078338;28;20041;-59
2021/10/30 18:41:42;;;;;;;2.88;1.00;;;;;;;;;;5074065;28;20339;-59
2021/10/30 18:44:08;;;;;;;3.90;1.40;;;;;;;;;;5074613;28;20167;-59
2021/10/30 18:46:34;;;;;;;2.33;0.93;;;;;;;;;;5075919;28;20055;-59
2021/10/30 18:49:00;;;;;;;6.88;1.45;;;;;;;;;;5079974;28;20041;-58
2021/10/30 18:51:26;;;;;;;4.28;1.35;;;;;;;;;;5075020;28;20041;-57
2021/10/30 18:53:52;;;;;;;2.92;1.13;;;;;;;;;;5076553;28;20093;-59
2021/10/30 18:56:20;;;;;;;3.40;1.00;;;;;;;;;;5070454;28;20116;-57
2021/10/30 18:58:46;;;;;;;4.53;2.08;;;;;;;;;;5071783;28;20062;-59
2021/10/30 19:01:12;;;;;;;2.55;1.05;;;;;;;;;;5073884;28;20640;-58
2021/10/30 19:03:39;;;;;;;3.60;1.40;;;;;;;;;;5072996;28;20040;-60
2021/10/30 19:06:05;;;;;;;3.10;1.08;;;;;;;;;;5071301;28;20618;-57
2021/10/30 19:08:33;;;;;;;3.65;1.77;;;;;;;;;;5055399;28;20102;-59
2021/10/30 19:11:00;;;;;;;4.80;1.30;;;;;;;;;;5072239;28;20036;-56
2021/10/30 19:13:26;;;;;;;5.35;1.20;;;;;;;;;;5049412;28;20044;-58
2021/10/30 19:15:52;;;;;;;3.15;1.05;;;;;;;;;;5071020;28;20048;-59
2021/10/30 19:18:18;;;;;;;2.83;1.10;;;;;;;;;;5070066;28;20032;-57
2021/10/30 19:20:44;;;;;;;3.15;1.23;;;;;;;;;;5070025;28;20805;-59
2021/10/30 19:23:10;;;;;;;4.80;1.50;;;;;;;;;;5072474;28;20058;-59
2021/10/30 19:25:36;;;;;;;3.30;1.08;;;;;;;;;;5067790;28;20043;-58
2021/10/30 19:28:02;;;;;;;3.10;1.08;;;;;;;;;;5047631;28;20691;-59
2021/10/30 19:30:28;;;;;;;13.30;1.17;;;;;;;;;;5072437;28;20064;-58
2021/10/30 19:32:54;;;;;;;3.42;1.13;;;;;;;;;;5071181;28;20885;-58
2021/10/30 19:35:20;;;;;;;3.38;1.08;;;;;;;;;;5069233;28;20044;-58
2021/10/30 19:37:46;;;;;;;2.80;1.25;;;;;;;;;;5071171;28;20113;-60
2021/10/30 19:40:12;;;;;;;2.88;1.10;;;;;;;;;;5070300;28;20620;-60
2021/10/30 19:42:38;;;;;;;2.58;0.95;;;;;;;;;;5054476;28;20512;-58
2021/10/30 19:45:05;;;;;;;3.42;1.25;;;;;;;;;;5069268;28;20036;-60
2021/10/30 19:47:31;;;;;;;3.97;1.10;;;;;;;;;;5066837;28;20102;-57
2021/10/30 19:49:57;;;;;;;5.20;1.05;;;;;;;;;;5068952;28;20161;-59
2021/10/30 19:52:26;;;;;;;4.55;1.30;;;;;;;;;;5070982;28;20591;-61
2021/10/30 19:54:52;;;;;;;2.70;1.02;;;;;;;;;;5070440;28;20047;-60
2021/10/30 19:57:18;;;;;;;2.58;1.08;;;;;;;;;;5069332;28;21976;-60
2021/10/30 19:59:44;;;;;;;3.97;1.08;;;;;;;;;;5070872;28;20062;-59
2021/10/30 20:02:10;;;;;;;5.05;1.20;;;;;;;;;;5068182;28;20550;-59
2021/10/30 20:04:39;;;;;;;4.10;0.98;;;;;;;;;;5051289;28;20037;-59
2021/10/30 20:07:05;;;;;;;2.92;0.90;;;;;;;;;;5066009;28;20054;-59
2021/10/30 20:09:31;;;;;;;3.10;1.10;;;;;;;;;;5068214;28;20067;-58
2021/10/30 20:11:57;;;;;;;3.80;1.40;;;;;;;;;;5069085;28;20048;-60
2021/10/30 20:14:23;;;;;;;3.45;1.17;;;;;;;;;;5067244;28;20399;-59
2021/10/30 20:16:50;;;;;;;3.42;0.98;;;;;;;;;;5070297;28;20571;-59
2021/10/30 20:19:16;;;;;;;5.32;1.15;;;;;;;;;;5051151;28;20703;-60
2021/10/30 20:21:42;;;;;;;3.83;1.10;;;;;;;;;;5069773;28;20046;-60
2021/10/30 20:24:09;;;;;;;3.60;1.10;;;;;;;;;;5068856;28;20108;-56
2021/10/30 20:26:35;;;;;;;2.70;1.08;;;;;;;;;;5066262;28;20052;-60
2021/10/30 20:29:03;;;;;;;3.10;1.10;;;;;;;;;;5050466;28;20051;-57
2021/10/30 20:31:29;;;;;;;3.03;1.10;;;;;;;;;;5085462;28;20174;-61
2021/10/30 20:33:55;;;;;;;4.50;1.27;;;;;;;;;;5070085;28;20119;-61
2021/10/30 20:36:28;;;;;;;3.03;1.15;;;;;;;;;;5050916;28;20032;-60
2021/10/30 20:38:54;;;;;;;4.82;1.40;;;;;;;;;;5081315;28;20048;-60
2021/10/30 20:41:20;;;;;;;3.05;1.17;;;;;;;;;;5069267;28;20040;-60
2021/10/30 20:43:48;;;;;;;2.60;0.88;;;;;;;;;;5070385;28;20063;-60
2021/10/30 20:46:14;;;;;;;3.15;1.13;;;;;;;;;;5072275;28;20031;-59
2021/10/30 20:48:39;;;;;;;3.50;1.17;;;;;;;;;;5071317;28;20092;-59
2021/10/30 20:51:06;;;;;;;3.35;1.13;;;;;;;;;;5070740;28;20682;-57
2021/10/30 20:53:32;;;;;;;1.40;0.50;;;;;;;;;;5049741;28;20043;-59
2021/10/30 20:55:57;;;;;;;3.78;1.40;;;;;;;;;;5069029;28;20028;-59
2021/10/30 20:58:24;;;;;;;2.80;0.90;;;;;;;;;;5068535;28;20052;-59
2021/10/30 21:00:50;;;;;;;3.05;1.13;;;;;;;;;;5069252;28;20062;-60
2021/10/30 21:03:17;;;;;;;4.70;1.10;;;;;;;;;;5070385;28;20040;-60
2021/10/30 21:05:43;;;;;;;2.33;0.80;;;;;;;;;;5092991;28;20044;-61
2021/10/30 21:08:09;;;;;;;3.20;0.90;;;;;;;;;;5090600;28;20116;-60
2021/10/30 21:10:35;;;;;;;2.85;0.98;;;;;;;;;;5092600;28;20035;-58
2021/10/30 21:13:01;;;;;;;2.97;1.00;;;;;;;;;;5093560;28;20047;-60
2021/10/30 21:15:28;;;;;;;1.83;0.68;;;;;;;;;;5090616;28;20043;-60
2021/10/30 21:17:54;;;;;;;5.47;0.90;;;;;;;;;;5093517;28;20127;-61
2021/10/30 21:20:20;;;;;;;3.17;0.90;;;;;;;;;;5070679;28;20126;-59
2021/10/30 21:22:46;;;;;;;1.83;0.73;;;;;;;;;;5094636;28;20036;-59
2021/10/30 21:25:12;;;;;;;2.20;0.65;;;;;;;;;;5094666;28;20400;-59
2021/10/30 21:27:38;;;;;;;2.17;0.80;;;;;;;;;;5070029;28;20155;-60
2021/10/30 21:30:04;;;;;;;1.98;0.80;;;;;;;;;;5094658;28;20027;-60
2021/10/30 21:32:30;;;;;;;2.20;0.70;;;;;;;;;;5071652;28;20531;-56
2021/10/30 21:34:56;;;;;;;2.25;0.88;;;;;;;;;;5094641;28;20068;-60
2021/10/30 21:37:22;;;;;;;1.92;0.60;;;;;;;;;;5091124;28;20043;-58
2021/10/30 21:39:48;;;;;;;1.85;0.68;;;;;;;;;;5094553;28;20368;-59
2021/10/30 21:42:14;;;;;;;5.75;0.90;;;;;;;;;;5096588;28;20444;-60
2021/10/30 21:44:40;;;;;;;2.35;0.75;;;;;;;;;;5092734;28;20045;-59
2021/10/30 21:47:06;;;;;;;2.78;0.82;;;;;;;;;;5090098;28;20569;-57
2021/10/30 21:49:38;;;;;;;2.08;0.85;;;;;;;;;;5090170;28;20123;-59
2021/10/30 21:52:04;;;;;;;2.15;0.80;;;;;;;;;;5095150;28;20581;-62
2021/10/30 21:54:30;;;;;;;2.85;1.00;;;;;;;;;;5091175;28;20747;-60
2021/10/30 21:56:55;;;;;;;2.38;0.85;;;;;;;;;;5090851;28;20039;-60
2021/10/30 21:59:22;;;;;;;3.00;0.90;;;;;;;;;;5093912;28;20043;-59
2021/10/30 22:01:49;;;;;;;2.47;0.80;;;;;;;;;;5090562;28;20047;-59
2021/10/30 22:04:15;;;;;;;2.90;0.93;;;;;;;;;;5089800;28;20039;-56
2021/10/30 22:06:41;;;;;;;2.13;0.65;;;;;;;;;;5089798;28;20155;-59
2021/10/30 22:09:07;;;;;;;2.35;0.82;;;;;;;;;;5092376;28;20411;-60
2021/10/30 22:11:33;;;;;;;2.08;0.80;;;;;;;;;;5091697;28;20066;-60
2021/10/30 22:14:06;;;;;;;2.95;0.98;;;;;;;;;;5092132;28;20515;-60
2021/10/30 22:16:36;;;;;;;2.28;0.65;;;;;;;;;;5095211;28;20067;-61
2021/10/30 22:19:05;;;;;;;2.63;0.82;;;;;;;;;;5078550;28;20032;-58
2021/10/30 22:21:32;;;;;;;2.42;0.88;;;;;;;;;;5065617;28;20062;-61
2021/10/30 22:23:58;;;;;;;2.45;0.70;;;;;;;;;;5067108;28;20186;-59
2021/10/30 22:26:24;;;;;;;2.42;0.82;;;;;;;;;;5053036;28;20131;-60
2021/10/30 22:28:50;;;;;;;2.95;0.90;;;;;;;;;;5051171;28;20639;-60
2021/10/30 22:31:16;;;;;;;3.00;1.05;;;;;;;;;;5063833;28;20103;-61
2021/10/30 22:33:42;;;;;;;2.17;0.80;;;;;;;;;;5065153;28;20507;-61
2021/10/30 22:36:08;;;;;;;2.47;1.00;;;;;;;;;;5067031;28;20059;-57
2021/10/30 22:38:34;;;;;;;3.33;0.98;;;;;;;;;;5063795;28;20533;-61
2021/10/30 22:41:00;;;;;;;1.83;0.68;;;;;;;;;;5065940;28;20040;-61
2021/10/30 22:43:26;;;;;;;2.15;0.65;;;;;;;;;;5063074;28;20045;-59
2021/10/30 22:45:52;;;;;;;2.03;0.85;;;;;;;;;;5062541;28;20059;-62
2021/10/30 22:48:18;;;;;;;2.05;0.80;;;;;;;;;;5061912;28;20033;-60
2021/10/30 22:50:44;;;;;;;3.25;0.85;;;;;;;;;;5063324;28;20040;-62
2021/10/30 22:53:09;;;;;;;2.60;1.00;;;;;;;;;;5089158;28;20099;-61
2021/10/30 22:55:36;;;;;;;1.98;0.82;;;;;;;;;;5093388;28;20032;-61
2021/10/30 22:58:03;;;;;;;2.13;0.80;;;;;;;;;;5093014;28;20792;-60
2021/10/30 23:00:31;;;;;;;3.42;0.90;;;;;;;;;;5095946;28;20099;-60
2021/10/30 23:02:57;;;;;;;2.70;0.88;;;;;;;;;;5086490;28;20206;-62
2021/10/30 23:05:23;;;;;;;2.92;1.08;;;;;;;;;;5093709;28;20066;-62
2021/10/30 23:07:49;;;;;;;2.63;0.70;;;;;;;;;;5093408;28;20059;-63
2021/10/30 23:10:15;;;;;;;1.65;0.60;;;;;;;;;;5093999;28;20101;-60
2021/10/30 23:12:42;;;;;;;2.00;0.70;;;;;;;;;;5092514;28;20024;-60
2021/10/30 23:15:08;;;;;;;2.50;0.80;;;;;;;;;;5097027;28;20036;-59
2021/10/30 23:17:35;;;;;;;2.58;0.98;;;;;;;;;;5095921;28;20085;-60
2021/10/30 23:20:01;;;;;;;3.00;0.90;;;;;;;;;;5097243;28;20043;-61
2021/10/30 23:22:27;;;;;;;2.58;1.00;;;;;;;;;;5097166;28;20807;-61
2021/10/30 23:24:52;;;;;;;2.50;1.10;;;;;;;;;;5096481;28;20047;-61
2021/10/30 23:27:19;;;;;;;2.28;0.70;;;;;;;;;;5091640;28;20052;-62
2021/10/30 23:29:44;;;;;;;1.27;0.68;;;;;;;;;;5092460;28;20047;-60
2021/10/30 23:32:11;;;;;;;2.42;0.85;;;;;;;;;;5091717;28;20032;-58
2021/10/30 23:34:37;;;;;;;2.30;0.90;;;;;;;;;;5091449;28;20144;-60
2021/10/30 23:37:04;;;;;;;2.33;0.80;;;;;;;;;;5091709;28;20485;-60
2021/10/30 23:39:30;;;;;;;3.67;0.93;;;;;;;;;;5091661;28;20064;-62
2021/10/30 23:41:55;;;;;;;2.20;0.88;;;;;;;;;;5094081;28;20155;-60
2021/10/30 23:44:21;;;;;;;2.63;1.00;;;;;;;;;;5092889;28;20032;-58
2021/10/30 23:46:47;;;;;;;2.30;0.90;;;;;;;;;;5090581;28;20047;-61
2021/10/30 23:49:13;;;;;;;3.72;1.00;;;;;;;;;;5095421;28;20392;-60
2021/10/30 23:51:39;;;;;;;2.78;1.08;;;;;;;;;;5093541;28;20038;-61
2021/10/30 23:54:05;;;;;;;2.53;0.90;;;;;;;;;;5072171;28;20036;-60
2021/10/30 23:56:31;;;;;;;2.58;1.00;;;;;;;;;;5071610;28;20038;-62
2021/10/30 23:58:57;;;;;;;3.05;0.80;;;;;;;;;;5092229;28;20404;-63
